sensor_id;sensor_type;location;lat;lon;timestamp;P1;durP1;ratioP1;P2;durP2;ratioP2
20649;SDS011;10484;48.736;9.332;2022-08-01T00:01:52;2.90;;;2.07;;
20649;SDS011;10484;48.736;9.332;2022-08-01T00:04:18;1.73;;;1.63;;
20649;SDS011;10484;48.736;9.332;2022-08-01T00:06:43;2.20;;;2.00;;
20649;SDS011;10484;48.736;9.332;2022-08-01T00:09:09;3.37;;;2.50;;
20649;SDS011;10484;48.736;9.332;2022-08-01T00:11:35;2.50;;;2.30;;
20649;SDS011;10484;48.736;9.332;2022-08-01T00:14:00;7.90;;;2.80;;
20649;SDS011;10484;48.736;9.332;2022-08-01T00:16:26;2.87;;;2.50;;
20649;SDS011;10484;48.736;9.332;2022-08-01T00:18:52;2.27;;;2.17;;
20649;SDS011;10484;48.736;9.332;2022-08-01T00:21:18;2.83;;;2.53;;
20649;SDS011;10484;48.736;9.332;2022-08-01T00:23:44;2.83;;;2.17;;
20649;SDS011;10484;48.736;9.332;2022-08-01T00:26:10;3.17;;;2.87;;
20649;SDS011;10484;48.736;9.332;2022-08-01T00:28:37;2.40;;;2.20;;
20649;SDS011;10484;48.736;9.332;2022-08-01T00:31:03;2.17;;;2.07;;
20649;SDS011;10484;48.736;9.332;2022-08-01T00:33:28;2.70;;;2.00;;
20649;SDS011;10484;48.736;9.332;2022-08-01T00:35:54;7.90;;;3.40;;
20649;SDS011;10484;48.736;9.332;2022-08-01T00:38:20;3.00;;;2.33;;
20649;SDS011;10484;48.736;9.332;2022-08-01T00:40:46;2.10;;;2.00;;
20649;SDS011;10484;48.736;9.332;2022-08-01T00:43:12;5.30;;;2.53;;
20649;SDS011;10484;48.736;9.332;2022-08-01T00:45:38;5.33;;;2.63;;
20649;SDS011;10484;48.736;9.332;2022-08-01T00:48:04;2.67;;;2.47;;
20649;SDS011;10484;48.736;9.332;2022-08-01T00:50:30;2.90;;;2.70;;
20649;SDS011;10484;48.736;9.332;2022-08-01T00:52:57;5.03;;;2.60;;
20649;SDS011;10484;48.736;9.332;2022-08-01T00:55:24;10.90;;;2.30;;
20649;SDS011;10484;48.736;9.332;2022-08-01T00:57:51;5.63;;;2.93;;
20649;SDS011;10484;48.736;9.332;2022-08-01T01:00:17;2.60;;;2.40;;
20649;SDS011;10484;48.736;9.332;2022-08-01T01:02:43;2.80;;;2.50;;
20649;SDS011;10484;48.736;9.332;2022-08-01T01:05:09;3.90;;;3.13;;
20649;SDS011;10484;48.736;9.332;2022-08-01T01:07:54;2.50;;;2.30;;
20649;SDS011;10484;48.736;9.332;2022-08-01T01:10:27;2.67;;;2.30;;
20649;SDS011;10484;48.736;9.332;2022-08-01T01:13:06;4.37;;;2.77;;
20649;SDS011;10484;48.736;9.332;2022-08-01T01:15:41;3.00;;;2.80;;
20649;SDS011;10484;48.736;9.332;2022-08-01T01:20:52;2.87;;;2.67;;
20649;SDS011;10484;48.736;9.332;2022-08-01T01:26:17;2.90;;;2.70;;
20649;SDS011;10484;48.736;9.332;2022-08-01T01:28:57;4.80;;;2.67;;
20649;SDS011;10484;48.736;9.332;2022-08-01T01:31:52;3.23;;;2.70;;
20649;SDS011;10484;48.736;9.332;2022-08-01T01:34:22;3.77;;;2.40;;
20649;SDS011;10484;48.736;9.332;2022-08-01T01:36:50;3.03;;;2.73;;
20649;SDS011;10484;48.736;9.332;2022-08-01T01:39:19;3.77;;;2.80;;
20649;SDS011;10484;48.736;9.332;2022-08-01T01:41:46;4.30;;;3.20;;
20649;SDS011;10484;48.736;9.332;2022-08-01T01:44:14;7.30;;;2.97;;
20649;SDS011;10484;48.736;9.332;2022-08-01T01:46:42;2.50;;;2.30;;
20649;SDS011;10484;48.736;9.332;2022-08-01T01:49:08;2.70;;;2.33;;
20649;SDS011;10484;48.736;9.332;2022-08-01T01:51:36;2.70;;;2.50;;
20649;SDS011;10484;48.736;9.332;2022-08-01T01:54:04;2.93;;;2.63;;
20649;SDS011;10484;48.736;9.332;2022-08-01T01:56:31;3.10;;;2.80;;
20649;SDS011;10484;48.736;9.332;2022-08-01T01:58:59;2.97;;;2.77;;
20649;SDS011;10484;48.736;9.332;2022-08-01T02:01:28;2.63;;;2.43;;
20649;SDS011;10484;48.736;9.332;2022-08-01T02:03:56;3.40;;;3.10;;
20649;SDS011;10484;48.736;9.332;2022-08-01T02:06:23;3.63;;;2.63;;
20649;SDS011;10484;48.736;9.332;2022-08-01T02:08:50;4.37;;;2.90;;
20649;SDS011;10484;48.736;9.332;2022-08-01T02:11:19;4.03;;;3.00;;
20649;SDS011;10484;48.736;9.332;2022-08-01T02:14:06;2.93;;;2.63;;
20649;SDS011;10484;48.736;9.332;2022-08-01T02:16:34;2.70;;;2.50;;
20649;SDS011;10484;48.736;9.332;2022-08-01T02:19:02;3.20;;;2.90;;
20649;SDS011;10484;48.736;9.332;2022-08-01T02:21:30;2.70;;;2.50;;
20649;SDS011;10484;48.736;9.332;2022-08-01T02:24:13;3.20;;;2.93;;
20649;SDS011;10484;48.736;9.332;2022-08-01T02:26:46;2.93;;;2.63;;
20649;SDS011;10484;48.736;9.332;2022-08-01T02:29:16;6.60;;;2.93;;
20649;SDS011;10484;48.736;9.332;2022-08-01T02:31:46;3.33;;;2.60;;
20649;SDS011;10484;48.736;9.332;2022-08-01T02:34:15;3.33;;;3.03;;
20649;SDS011;10484;48.736;9.332;2022-08-01T02:36:43;2.73;;;2.53;;
20649;SDS011;10484;48.736;9.332;2022-08-01T02:39:11;6.63;;;2.90;;
20649;SDS011;10484;48.736;9.332;2022-08-01T02:41:42;2.97;;;2.63;;
20649;SDS011;10484;48.736;9.332;2022-08-01T02:44:18;3.80;;;2.70;;
20649;SDS011;10484;48.736;9.332;2022-08-01T02:46:51;4.33;;;3.10;;
20649;SDS011;10484;48.736;9.332;2022-08-01T02:49:27;2.70;;;2.50;;
20649;SDS011;10484;48.736;9.332;2022-08-01T02:51:57;3.30;;;3.10;;
20649;SDS011;10484;48.736;9.332;2022-08-01T02:54:26;2.80;;;2.60;;
20649;SDS011;10484;48.736;9.332;2022-08-01T02:56:54;3.90;;;3.10;;
20649;SDS011;10484;48.736;9.332;2022-08-01T02:59:22;3.40;;;3.10;;
20649;SDS011;10484;48.736;9.332;2022-08-01T03:01:51;5.27;;;3.50;;
20649;SDS011;10484;48.736;9.332;2022-08-01T03:04:20;3.27;;;2.97;;
20649;SDS011;10484;48.736;9.332;2022-08-01T03:06:48;3.13;;;2.63;;
20649;SDS011;10484;48.736;9.332;2022-08-01T03:09:14;3.20;;;3.00;;
20649;SDS011;10484;48.736;9.332;2022-08-01T03:11:41;2.80;;;2.60;;
20649;SDS011;10484;48.736;9.332;2022-08-01T03:14:08;3.60;;;3.30;;
20649;SDS011;10484;48.736;9.332;2022-08-01T03:16:36;3.07;;;2.77;;
20649;SDS011;10484;48.736;9.332;2022-08-01T03:19:05;4.13;;;3.73;;
20649;SDS011;10484;48.736;9.332;2022-08-01T03:21:33;3.80;;;3.50;;
20649;SDS011;10484;48.736;9.332;2022-08-01T03:24:00;4.60;;;3.10;;
20649;SDS011;10484;48.736;9.332;2022-08-01T03:26:28;4.00;;;3.60;;
20649;SDS011;10484;48.736;9.332;2022-08-01T03:28:57;5.20;;;3.60;;
20649;SDS011;10484;48.736;9.332;2022-08-01T03:31:26;3.67;;;3.37;;
20649;SDS011;10484;48.736;9.332;2022-08-01T03:33:54;3.30;;;3.10;;
20649;SDS011;10484;48.736;9.332;2022-08-01T03:36:24;4.07;;;3.77;;
20649;SDS011;10484;48.736;9.332;2022-08-01T03:38:55;3.53;;;3.23;;
20649;SDS011;10484;48.736;9.332;2022-08-01T03:41:26;6.63;;;4.20;;
20649;SDS011;10484;48.736;9.332;2022-08-01T03:44:00;4.03;;;3.73;;
20649;SDS011;10484;48.736;9.332;2022-08-01T03:46:33;4.40;;;3.47;;
20649;SDS011;10484;48.736;9.332;2022-08-01T03:49:06;3.80;;;3.20;;
20649;SDS011;10484;48.736;9.332;2022-08-01T03:51:36;3.80;;;3.50;;
20649;SDS011;10484;48.736;9.332;2022-08-01T03:54:03;3.67;;;3.37;;
20649;SDS011;10484;48.736;9.332;2022-08-01T03:56:30;3.90;;;3.60;;
20649;SDS011;10484;48.736;9.332;2022-08-01T03:59:00;4.47;;;3.53;;
20649;SDS011;10484;48.736;9.332;2022-08-01T04:01:28;3.30;;;3.00;;
20649;SDS011;10484;48.736;9.332;2022-08-01T04:03:57;4.10;;;3.60;;
20649;SDS011;10484;48.736;9.332;2022-08-01T04:06:24;4.73;;;3.40;;
20649;SDS011;10484;48.736;9.332;2022-08-01T04:08:50;3.90;;;3.60;;
20649;SDS011;10484;48.736;9.332;2022-08-01T04:11:23;3.90;;;3.60;;
20649;SDS011;10484;48.736;9.332;2022-08-01T04:13:50;3.93;;;3.50;;
20649;SDS011;10484;48.736;9.332;2022-08-01T04:16:17;5.83;;;3.87;;
20649;SDS011;10484;48.736;9.332;2022-08-01T04:18:43;3.57;;;3.30;;
20649;SDS011;10484;48.736;9.332;2022-08-01T04:21:09;5.37;;;4.07;;
20649;SDS011;10484;48.736;9.332;2022-08-01T04:23:35;5.97;;;3.50;;
20649;SDS011;10484;48.736;9.332;2022-08-01T04:26:04;3.43;;;3.13;;
20649;SDS011;10484;48.736;9.332;2022-08-01T04:28:31;3.50;;;3.20;;
20649;SDS011;10484;48.736;9.332;2022-08-01T04:31:01;4.40;;;4.10;;
20649;SDS011;10484;48.736;9.332;2022-08-01T04:33:29;4.37;;;3.97;;
20649;SDS011;10484;48.736;9.332;2022-08-01T04:35:56;3.93;;;3.53;;
20649;SDS011;10484;48.736;9.332;2022-08-01T04:38:25;4.50;;;4.10;;
20649;SDS011;10484;48.736;9.332;2022-08-01T04:40:53;4.10;;;3.43;;
20649;SDS011;10484;48.736;9.332;2022-08-01T04:43:20;4.17;;;3.87;;
20649;SDS011;10484;48.736;9.332;2022-08-01T04:45:47;4.70;;;4.00;;
20649;SDS011;10484;48.736;9.332;2022-08-01T04:48:16;3.80;;;3.50;;
20649;SDS011;10484;48.736;9.332;2022-08-01T04:50:44;4.83;;;3.80;;
20649;SDS011;10484;48.736;9.332;2022-08-01T04:53:17;4.13;;;3.83;;
20649;SDS011;10484;48.736;9.332;2022-08-01T04:55:46;4.20;;;3.80;;
20649;SDS011;10484;48.736;9.332;2022-08-01T04:58:13;5.10;;;3.37;;
20649;SDS011;10484;48.736;9.332;2022-08-01T05:00:40;4.03;;;3.40;;
20649;SDS011;10484;48.736;9.332;2022-08-01T05:03:06;3.50;;;3.20;;
20649;SDS011;10484;48.736;9.332;2022-08-01T05:05:31;4.03;;;3.63;;
20649;SDS011;10484;48.736;9.332;2022-08-01T05:07:57;5.70;;;4.00;;
20649;SDS011;10484;48.736;9.332;2022-08-01T05:10:23;5.47;;;4.13;;
20649;SDS011;10484;48.736;9.332;2022-08-01T05:12:48;5.50;;;3.90;;
20649;SDS011;10484;48.736;9.332;2022-08-01T05:15:16;5.80;;;3.67;;
20649;SDS011;10484;48.736;9.332;2022-08-01T05:17:42;4.10;;;3.50;;
20649;SDS011;10484;48.736;9.332;2022-08-01T05:20:08;4.73;;;3.93;;
20649;SDS011;10484;48.736;9.332;2022-08-01T05:22:34;4.10;;;3.70;;
20649;SDS011;10484;48.736;9.332;2022-08-01T05:24:59;4.40;;;4.00;;
20649;SDS011;10484;48.736;9.332;2022-08-01T05:27:25;4.37;;;3.97;;
20649;SDS011;10484;48.736;9.332;2022-08-01T05:29:51;4.53;;;3.93;;
20649;SDS011;10484;48.736;9.332;2022-08-01T05:32:17;5.30;;;4.20;;
20649;SDS011;10484;48.736;9.332;2022-08-01T05:34:43;4.23;;;3.83;;
20649;SDS011;10484;48.736;9.332;2022-08-01T05:37:08;4.60;;;4.17;;
20649;SDS011;10484;48.736;9.332;2022-08-01T05:39:34;4.90;;;4.17;;
20649;SDS011;10484;48.736;9.332;2022-08-01T05:42:00;3.80;;;3.50;;
20649;SDS011;10484;48.736;9.332;2022-08-01T05:44:25;4.50;;;4.10;;
20649;SDS011;10484;48.736;9.332;2022-08-01T05:46:51;4.50;;;3.77;;
20649;SDS011;10484;48.736;9.332;2022-08-01T05:49:17;4.80;;;4.40;;
20649;SDS011;10484;48.736;9.332;2022-08-01T05:51:43;3.60;;;3.30;;
20649;SDS011;10484;48.736;9.332;2022-08-01T05:54:09;4.03;;;3.50;;
20649;SDS011;10484;48.736;9.332;2022-08-01T05:56:34;4.07;;;3.77;;
20649;SDS011;10484;48.736;9.332;2022-08-01T05:59:00;4.47;;;4.10;;
20649;SDS011;10484;48.736;9.332;2022-08-01T06:01:26;3.20;;;2.90;;
20649;SDS011;10484;48.736;9.332;2022-08-01T06:03:51;3.63;;;3.00;;
20649;SDS011;10484;48.736;9.332;2022-08-01T06:06:19;4.63;;;4.00;;
20649;SDS011;10484;48.736;9.332;2022-08-01T06:08:45;4.23;;;3.40;;
20649;SDS011;10484;48.736;9.332;2022-08-01T06:11:11;6.60;;;4.40;;
20649;SDS011;10484;48.736;9.332;2022-08-01T06:13:37;4.07;;;3.70;;
20649;SDS011;10484;48.736;9.332;2022-08-01T06:16:03;3.57;;;3.27;;
20649;SDS011;10484;48.736;9.332;2022-08-01T06:18:29;5.27;;;3.97;;
20649;SDS011;10484;48.736;9.332;2022-08-01T06:20:54;6.67;;;4.67;;
20649;SDS011;10484;48.736;9.332;2022-08-01T06:23:20;3.70;;;3.40;;
20649;SDS011;10484;48.736;9.332;2022-08-01T06:25:46;4.10;;;3.70;;
20649;SDS011;10484;48.736;9.332;2022-08-01T06:28:13;3.80;;;3.50;;
20649;SDS011;10484;48.736;9.332;2022-08-01T06:30:38;4.50;;;3.17;;
20649;SDS011;10484;48.736;9.332;2022-08-01T06:33:04;4.40;;;3.63;;
20649;SDS011;10484;48.736;9.332;2022-08-01T06:35:30;4.90;;;3.80;;
20649;SDS011;10484;48.736;9.332;2022-08-01T06:37:56;5.63;;;3.80;;
20649;SDS011;10484;48.736;9.332;2022-08-01T06:40:22;3.40;;;3.10;;
20649;SDS011;10484;48.736;9.332;2022-08-01T06:42:48;3.53;;;3.27;;
20649;SDS011;10484;48.736;9.332;2022-08-01T06:45:14;5.17;;;3.63;;
20649;SDS011;10484;48.736;9.332;2022-08-01T06:47:42;3.67;;;2.80;;
20649;SDS011;10484;48.736;9.332;2022-08-01T06:50:09;3.90;;;3.17;;
20649;SDS011;10484;48.736;9.332;2022-08-01T06:52:35;3.50;;;3.20;;
20649;SDS011;10484;48.736;9.332;2022-08-01T06:55:01;4.27;;;3.60;;
20649;SDS011;10484;48.736;9.332;2022-08-01T06:57:27;3.67;;;3.03;;
20649;SDS011;10484;48.736;9.332;2022-08-01T06:59:53;3.80;;;3.40;;
20649;SDS011;10484;48.736;9.332;2022-08-01T07:02:20;3.03;;;2.70;;
20649;SDS011;10484;48.736;9.332;2022-08-01T07:04:46;3.77;;;3.33;;
20649;SDS011;10484;48.736;9.332;2022-08-01T07:07:11;3.13;;;2.83;;
20649;SDS011;10484;48.736;9.332;2022-08-01T07:09:37;5.57;;;3.00;;
20649;SDS011;10484;48.736;9.332;2022-08-01T07:12:05;3.30;;;2.73;;
20649;SDS011;10484;48.736;9.332;2022-08-01T07:14:31;4.60;;;2.80;;
20649;SDS011;10484;48.736;9.332;2022-08-01T07:16:57;3.40;;;3.10;;
20649;SDS011;10484;48.736;9.332;2022-08-01T07:19:23;3.17;;;2.90;;
20649;SDS011;10484;48.736;9.332;2022-08-01T07:21:48;2.93;;;2.60;;
20649;SDS011;10484;48.736;9.332;2022-08-01T07:24:14;3.70;;;3.40;;
20649;SDS011;10484;48.736;9.332;2022-08-01T07:26:44;2.77;;;2.50;;
20649;SDS011;10484;48.736;9.332;2022-08-01T07:29:11;2.60;;;2.40;;
20649;SDS011;10484;48.736;9.332;2022-08-01T07:31:36;3.93;;;3.00;;
20649;SDS011;10484;48.736;9.332;2022-08-01T07:34:02;2.60;;;1.90;;
20649;SDS011;10484;48.736;9.332;2022-08-01T07:36:28;4.17;;;2.30;;
20649;SDS011;10484;48.736;9.332;2022-08-01T07:38:54;2.93;;;2.63;;
20649;SDS011;10484;48.736;9.332;2022-08-01T07:41:20;3.10;;;2.80;;
20649;SDS011;10484;48.736;9.332;2022-08-01T07:43:46;2.17;;;1.97;;
20649;SDS011;10484;48.736;9.332;2022-08-01T07:46:13;2.53;;;2.03;;
20649;SDS011;10484;48.736;9.332;2022-08-01T07:48:40;3.40;;;2.20;;
20649;SDS011;10484;48.736;9.332;2022-08-01T07:51:06;4.33;;;1.90;;
20649;SDS011;10484;48.736;9.332;2022-08-01T07:53:33;3.10;;;2.07;;
20649;SDS011;10484;48.736;9.332;2022-08-01T07:55:59;2.07;;;1.97;;
20649;SDS011;10484;48.736;9.332;2022-08-01T07:58:25;2.07;;;1.87;;
20649;SDS011;10484;48.736;9.332;2022-08-01T08:00:50;2.13;;;1.97;;
20649;SDS011;10484;48.736;9.332;2022-08-01T08:03:16;4.00;;;2.57;;
20649;SDS011;10484;48.736;9.332;2022-08-01T08:05:42;3.17;;;1.97;;
20649;SDS011;10484;48.736;9.332;2022-08-01T08:08:08;1.73;;;1.63;;
20649;SDS011;10484;48.736;9.332;2022-08-01T08:10:35;2.03;;;1.87;;
20649;SDS011;10484;48.736;9.332;2022-08-01T08:13:01;2.40;;;2.07;;
20649;SDS011;10484;48.736;9.332;2022-08-01T08:15:27;3.23;;;1.70;;
20649;SDS011;10484;48.736;9.332;2022-08-01T08:17:52;2.13;;;1.97;;
20649;SDS011;10484;48.736;9.332;2022-08-01T08:20:18;2.50;;;2.30;;
20649;SDS011;10484;48.736;9.332;2022-08-01T08:22:46;3.17;;;1.80;;
20649;SDS011;10484;48.736;9.332;2022-08-01T08:25:11;2.17;;;2.07;;
20649;SDS011;10484;48.736;9.332;2022-08-01T08:27:37;2.50;;;1.90;;
20649;SDS011;10484;48.736;9.332;2022-08-01T08:30:04;2.40;;;2.20;;
20649;SDS011;10484;48.736;9.332;2022-08-01T08:32:32;2.37;;;1.97;;
20649;SDS011;10484;48.736;9.332;2022-08-01T08:34:59;1.90;;;1.67;;
20649;SDS011;10484;48.736;9.332;2022-08-01T08:37:25;2.23;;;2.03;;
20649;SDS011;10484;48.736;9.332;2022-08-01T08:39:50;1.80;;;1.70;;
20649;SDS011;10484;48.736;9.332;2022-08-01T08:42:16;3.23;;;1.90;;
20649;SDS011;10484;48.736;9.332;2022-08-01T08:44:43;4.10;;;1.90;;
20649;SDS011;10484;48.736;9.332;2022-08-01T08:47:09;2.40;;;2.20;;
20649;SDS011;10484;48.736;9.332;2022-08-01T08:49:37;2.07;;;1.97;;
20649;SDS011;10484;48.736;9.332;2022-08-01T08:52:03;2.47;;;2.27;;
20649;SDS011;10484;48.736;9.332;2022-08-01T08:54:30;2.23;;;2.10;;
20649;SDS011;10484;48.736;9.332;2022-08-01T08:56:57;3.27;;;2.60;;
20649;SDS011;10484;48.736;9.332;2022-08-01T08:59:24;2.63;;;2.10;;
20649;SDS011;10484;48.736;9.332;2022-08-01T09:01:51;2.37;;;2.17;;
20649;SDS011;10484;48.736;9.332;2022-08-01T09:04:17;3.17;;;2.87;;
20649;SDS011;10484;48.736;9.332;2022-08-01T09:06:45;4.67;;;2.67;;
20649;SDS011;10484;48.736;9.332;2022-08-01T09:09:11;2.30;;;2.10;;
20649;SDS011;10484;48.736;9.332;2022-08-01T09:11:37;4.57;;;3.47;;
20649;SDS011;10484;48.736;9.332;2022-08-01T09:14:04;3.07;;;2.87;;
20649;SDS011;10484;48.736;9.332;2022-08-01T09:16:42;3.30;;;2.90;;
20649;SDS011;10484;48.736;9.332;2022-08-01T09:19:11;3.10;;;2.50;;
20649;SDS011;10484;48.736;9.332;2022-08-01T09:21:40;3.63;;;2.53;;
20649;SDS011;10484;48.736;9.332;2022-08-01T09:24:28;3.90;;;3.60;;
20649;SDS011;10484;48.736;9.332;2022-08-01T09:26:54;3.00;;;2.80;;
20649;SDS011;10484;48.736;9.332;2022-08-01T09:29:22;3.13;;;2.83;;
20649;SDS011;10484;48.736;9.332;2022-08-01T09:31:52;3.37;;;3.07;;
20649;SDS011;10484;48.736;9.332;2022-08-01T09:34:30;2.63;;;2.43;;
20649;SDS011;10484;48.736;9.332;2022-08-01T09:36:58;4.07;;;3.67;;
20649;SDS011;10484;48.736;9.332;2022-08-01T09:39:26;5.87;;;4.10;;
20649;SDS011;10484;48.736;9.332;2022-08-01T09:42:21;3.83;;;3.30;;
20649;SDS011;10484;48.736;9.332;2022-08-01T09:44:48;4.60;;;3.87;;
20649;SDS011;10484;48.736;9.332;2022-08-01T09:47:15;4.83;;;3.80;;
20649;SDS011;10484;48.736;9.332;2022-08-01T09:49:42;7.70;;;3.97;;
20649;SDS011;10484;48.736;9.332;2022-08-01T09:52:16;4.23;;;3.83;;
20649;SDS011;10484;48.736;9.332;2022-08-01T09:54:43;4.60;;;4.03;;
20649;SDS011;10484;48.736;9.332;2022-08-01T09:57:18;4.80;;;3.13;;
20649;SDS011;10484;48.736;9.332;2022-08-01T09:59:48;5.20;;;4.70;;
20649;SDS011;10484;48.736;9.332;2022-08-01T10:02:49;4.70;;;3.93;;
20649;SDS011;10484;48.736;9.332;2022-08-01T10:05:09;3.60;;;3.30;;
20649;SDS011;10484;48.736;9.332;2022-08-01T10:07:35;3.93;;;3.63;;
20649;SDS011;10484;48.736;9.332;2022-08-01T10:10:19;7.77;;;4.50;;
20649;SDS011;10484;48.736;9.332;2022-08-01T10:12:45;3.90;;;3.57;;
20649;SDS011;10484;48.736;9.332;2022-08-01T10:15:14;4.97;;;4.47;;
20649;SDS011;10484;48.736;9.332;2022-08-01T10:17:41;4.77;;;4.27;;
20649;SDS011;10484;48.736;9.332;2022-08-01T10:20:15;4.90;;;4.30;;
20649;SDS011;10484;48.736;9.332;2022-08-01T10:22:42;5.17;;;4.40;;
20649;SDS011;10484;48.736;9.332;2022-08-01T10:25:08;4.83;;;4.43;;
20649;SDS011;10484;48.736;9.332;2022-08-01T10:27:35;5.60;;;5.10;;
20649;SDS011;10484;48.736;9.332;2022-08-01T10:30:03;8.13;;;5.10;;
20649;SDS011;10484;48.736;9.332;2022-08-01T10:32:30;5.07;;;4.50;;
20649;SDS011;10484;48.736;9.332;2022-08-01T10:34:56;7.60;;;4.47;;
20649;SDS011;10484;48.736;9.332;2022-08-01T10:37:24;5.70;;;5.27;;
20649;SDS011;10484;48.736;9.332;2022-08-01T10:39:50;9.30;;;4.70;;
20649;SDS011;10484;48.736;9.332;2022-08-01T10:42:17;4.73;;;4.33;;
20649;SDS011;10484;48.736;9.332;2022-08-01T10:44:43;4.13;;;3.63;;
20649;SDS011;10484;48.736;9.332;2022-08-01T10:47:14;4.53;;;4.10;;
20649;SDS011;10484;48.736;9.332;2022-08-01T10:49:45;7.60;;;4.50;;
20649;SDS011;10484;48.736;9.332;2022-08-01T10:52:15;4.70;;;4.30;;
20649;SDS011;10484;48.736;9.332;2022-08-01T10:54:42;4.77;;;4.37;;
20649;SDS011;10484;48.736;9.332;2022-08-01T10:57:07;4.50;;;3.90;;
20649;SDS011;10484;48.736;9.332;2022-08-01T10:59:33;4.77;;;4.20;;
20649;SDS011;10484;48.736;9.332;2022-08-01T11:02:05;4.27;;;3.97;;
20649;SDS011;10484;48.736;9.332;2022-08-01T11:07:06;4.63;;;4.23;;
20649;SDS011;10484;48.736;9.332;2022-08-01T11:09:40;3.57;;;3.27;;
20649;SDS011;10484;48.736;9.332;2022-08-01T11:23:19;2.70;;;2.50;;
20649;SDS011;10484;48.736;9.332;2022-08-01T11:30:50;4.83;;;3.10;;
20649;SDS011;10484;48.736;9.332;2022-08-01T11:38:44;3.20;;;3.00;;
20649;SDS011;10484;48.736;9.332;2022-08-01T11:41:28;4.33;;;3.20;;
20649;SDS011;10484;48.736;9.332;2022-08-01T11:46:45;2.70;;;2.50;;
20649;SDS011;10484;48.736;9.332;2022-08-01T11:52:02;5.50;;;2.73;;
20649;SDS011;10484;48.736;9.332;2022-08-01T11:54:38;2.77;;;2.57;;
20649;SDS011;10484;48.736;9.332;2022-08-01T11:57:09;3.90;;;2.97;;
20649;SDS011;10484;48.736;9.332;2022-08-01T11:59:51;3.83;;;3.20;;
20649;SDS011;10484;48.736;9.332;2022-08-01T12:02:28;3.77;;;2.90;;
20649;SDS011;10484;48.736;9.332;2022-08-01T12:04:56;2.90;;;2.70;;
20649;SDS011;10484;48.736;9.332;2022-08-01T12:07:24;2.60;;;2.40;;
20649;SDS011;10484;48.736;9.332;2022-08-01T12:09:59;2.40;;;1.97;;
20649;SDS011;10484;48.736;9.332;2022-08-01T12:12:28;2.90;;;2.70;;
20649;SDS011;10484;48.736;9.332;2022-08-01T12:14:55;2.80;;;2.60;;
20649;SDS011;10484;48.736;9.332;2022-08-01T12:17:34;3.20;;;3.00;;
20649;SDS011;10484;48.736;9.332;2022-08-01T12:20:02;2.70;;;2.50;;
20649;SDS011;10484;48.736;9.332;2022-08-01T12:22:29;2.87;;;2.20;;
20649;SDS011;10484;48.736;9.332;2022-08-01T12:24:55;3.33;;;2.50;;
20649;SDS011;10484;48.736;9.332;2022-08-01T12:27:30;2.80;;;2.60;;
20649;SDS011;10484;48.736;9.332;2022-08-01T12:29:56;4.80;;;2.90;;
20649;SDS011;10484;48.736;9.332;2022-08-01T12:32:24;2.23;;;2.13;;
20649;SDS011;10484;48.736;9.332;2022-08-01T12:34:52;2.87;;;2.67;;
20649;SDS011;10484;48.736;9.332;2022-08-01T12:37:19;3.53;;;2.27;;
20649;SDS011;10484;48.736;9.332;2022-08-01T12:39:45;2.30;;;2.20;;
20649;SDS011;10484;48.736;9.332;2022-08-01T12:42:11;2.70;;;2.30;;
20649;SDS011;10484;48.736;9.332;2022-08-01T12:44:37;3.13;;;2.73;;
20649;SDS011;10484;48.736;9.332;2022-08-01T12:47:07;2.50;;;2.30;;
20649;SDS011;10484;48.736;9.332;2022-08-01T12:49:36;3.20;;;2.20;;
20649;SDS011;10484;48.736;9.332;2022-08-01T12:52:03;2.90;;;2.70;;
20649;SDS011;10484;48.736;9.332;2022-08-01T12:54:29;2.30;;;2.10;;
20649;SDS011;10484;48.736;9.332;2022-08-01T12:56:55;2.70;;;2.00;;
20649;SDS011;10484;48.736;9.332;2022-08-01T13:01:52;4.10;;;2.37;;
20649;SDS011;10484;48.736;9.332;2022-08-01T13:04:21;3.10;;;2.30;;
20649;SDS011;10484;48.736;9.332;2022-08-01T13:06:48;5.20;;;2.20;;
20649;SDS011;10484;48.736;9.332;2022-08-01T13:09:18;3.50;;;2.70;;
20649;SDS011;10484;48.736;9.332;2022-08-01T13:11:44;2.80;;;2.60;;
20649;SDS011;10484;48.736;9.332;2022-08-01T13:14:10;2.87;;;2.67;;
20649;SDS011;10484;48.736;9.332;2022-08-01T13:16:52;2.10;;;1.93;;
20649;SDS011;10484;48.736;9.332;2022-08-01T13:19:18;2.20;;;2.00;;
20649;SDS011;10484;48.736;9.332;2022-08-01T13:21:53;1.97;;;1.83;;
20649;SDS011;10484;48.736;9.332;2022-08-01T13:24:27;2.60;;;2.40;;
20649;SDS011;10484;48.736;9.332;2022-08-01T13:26:54;2.60;;;2.40;;
20649;SDS011;10484;48.736;9.332;2022-08-01T13:29:29;2.90;;;2.70;;
20649;SDS011;10484;48.736;9.332;2022-08-01T13:31:59;5.40;;;2.33;;
20649;SDS011;10484;48.736;9.332;2022-08-01T13:34:36;4.70;;;2.50;;
20649;SDS011;10484;48.736;9.332;2022-08-01T13:37:02;2.00;;;1.90;;
20649;SDS011;10484;48.736;9.332;2022-08-01T13:39:28;2.10;;;2.00;;
20649;SDS011;10484;48.736;9.332;2022-08-01T13:42:14;2.60;;;2.40;;
20649;SDS011;10484;48.736;9.332;2022-08-01T13:44:43;2.70;;;2.30;;
20649;SDS011;10484;48.736;9.332;2022-08-01T13:47:12;3.20;;;2.20;;
20649;SDS011;10484;48.736;9.332;2022-08-01T13:49:38;3.27;;;2.10;;
20649;SDS011;10484;48.736;9.332;2022-08-01T13:52:04;2.60;;;2.23;;
20649;SDS011;10484;48.736;9.332;2022-08-01T13:54:33;2.20;;;1.93;;
20649;SDS011;10484;48.736;9.332;2022-08-01T13:56:59;2.10;;;2.00;;
20649;SDS011;10484;48.736;9.332;2022-08-01T13:59:24;2.50;;;2.30;;
20649;SDS011;10484;48.736;9.332;2022-08-01T14:01:50;2.37;;;2.07;;
20649;SDS011;10484;48.736;9.332;2022-08-01T14:04:16;2.10;;;1.77;;
20649;SDS011;10484;48.736;9.332;2022-08-01T14:06:42;2.53;;;2.33;;
20649;SDS011;10484;48.736;9.332;2022-08-01T14:09:08;2.10;;;1.90;;
20649;SDS011;10484;48.736;9.332;2022-08-01T14:11:33;2.60;;;2.40;;
20649;SDS011;10484;48.736;9.332;2022-08-01T14:13:59;2.23;;;2.10;;
20649;SDS011;10484;48.736;9.332;2022-08-01T14:16:25;1.90;;;1.80;;
20649;SDS011;10484;48.736;9.332;2022-08-01T14:18:51;2.70;;;2.07;;
20649;SDS011;10484;48.736;9.332;2022-08-01T14:21:17;1.93;;;1.83;;
20649;SDS011;10484;48.736;9.332;2022-08-01T14:23:42;2.83;;;2.10;;
20649;SDS011;10484;48.736;9.332;2022-08-01T14:26:09;2.10;;;1.90;;
20649;SDS011;10484;48.736;9.332;2022-08-01T14:28:35;4.03;;;2.00;;
20649;SDS011;10484;48.736;9.332;2022-08-01T14:31:01;3.20;;;1.73;;
20649;SDS011;10484;48.736;9.332;2022-08-01T14:33:27;2.70;;;1.83;;
20649;SDS011;10484;48.736;9.332;2022-08-01T14:35:53;1.83;;;1.70;;
20649;SDS011;10484;48.736;9.332;2022-08-01T14:38:20;2.10;;;1.70;;
20649;SDS011;10484;48.736;9.332;2022-08-01T14:40:45;2.57;;;1.97;;
20649;SDS011;10484;48.736;9.332;2022-08-01T14:43:19;3.07;;;1.90;;
20649;SDS011;10484;48.736;9.332;2022-08-01T14:45:45;2.07;;;1.80;;
20649;SDS011;10484;48.736;9.332;2022-08-01T14:48:15;19.10;;;4.20;;
20649;SDS011;10484;48.736;9.332;2022-08-01T14:50:41;5.83;;;2.30;;
20649;SDS011;10484;48.736;9.332;2022-08-01T14:53:07;2.23;;;2.03;;
20649;SDS011;10484;48.736;9.332;2022-08-01T14:55:33;5.37;;;2.10;;
20649;SDS011;10484;48.736;9.332;2022-08-01T14:57:58;1.77;;;1.63;;
20649;SDS011;10484;48.736;9.332;2022-08-01T15:00:24;1.83;;;1.70;;
20649;SDS011;10484;48.736;9.332;2022-08-01T15:02:50;2.20;;;2.00;;
20649;SDS011;10484;48.736;9.332;2022-08-01T15:05:15;3.60;;;2.20;;
20649;SDS011;10484;48.736;9.332;2022-08-01T15:07:41;1.70;;;1.60;;
20649;SDS011;10484;48.736;9.332;2022-08-01T15:10:07;2.87;;;1.83;;
20649;SDS011;10484;48.736;9.332;2022-08-01T15:12:34;1.77;;;1.53;;
20649;SDS011;10484;48.736;9.332;2022-08-01T15:14:59;1.70;;;1.60;;
20649;SDS011;10484;48.736;9.332;2022-08-01T15:17:28;2.10;;;1.70;;
20649;SDS011;10484;48.736;9.332;2022-08-01T15:19:56;2.10;;;1.90;;
20649;SDS011;10484;48.736;9.332;2022-08-01T15:22:23;2.80;;;2.47;;
20649;SDS011;10484;48.736;9.332;2022-08-01T15:24:50;2.07;;;1.57;;
20649;SDS011;10484;48.736;9.332;2022-08-01T15:27:17;2.30;;;2.10;;
20649;SDS011;10484;48.736;9.332;2022-08-01T15:29:44;2.30;;;2.10;;
20649;SDS011;10484;48.736;9.332;2022-08-01T15:32:10;2.33;;;1.80;;